sensor_id;sensor_type;location;lat;lon;timestamp;P1;durP1;ratioP1;P2;durP2;ratioP2
64500;SDS011;50874;24.150;-110.320;2023-12-20T00:02:00;24.58;;;4.47;;
64500;SDS011;50874;24.150;-110.320;2023-12-20T00:04:28;32.25;;;5.80;;
64500;SDS011;50874;24.150;-110.320;2023-12-20T00:06:54;40.05;;;6.10;;
64500;SDS011;50874;24.150;-110.320;2023-12-20T00:09:20;33.17;;;5.25;;
64500;SDS011;50874;24.150;-110.320;2023-12-20T00:11:47;41.08;;;5.55;;
64500;SDS011;50874;24.150;-110.320;2023-12-20T00:14:13;54.17;;;5.38;;
64500;SDS011;50874;24.150;-110.320;2023-12-20T00:16:40;32.78;;;5.55;;
64500;SDS011;50874;24.150;-110.320;2023-12-20T00:19:07;42.50;;;5.25;;
64500;SDS011;50874;24.150;-110.320;2023-12-20T00:21:33;36.45;;;5.45;;
64500;SDS011;50874;24.150;-110.320;2023-12-20T00:24:00;49.20;;;4.55;;
64500;SDS011;50874;24.150;-110.320;2023-12-20T00:26:27;48.95;;;4.90;;
64500;SDS011;50874;24.150;-110.320;2023-12-20T00:28:53;36.67;;;4.93;;
64500;SDS011;50874;24.150;-110.320;2023-12-20T00:31:20;37.28;;;4.97;;
64500;SDS011;50874;24.150;-110.320;2023-12-20T00:33:46;35.20;;;4.30;;
64500;SDS011;50874;24.150;-110.320;2023-12-20T00:36:13;31.92;;;4.40;;
64500;SDS011;50874;24.150;-110.320;2023-12-20T00:38:39;28.95;;;3.75;;
64500;SDS011;50874;24.150;-110.320;2023-12-20T00:41:06;43.75;;;4.18;;
64500;SDS011;50874;24.150;-110.320;2023-12-20T00:43:32;37.78;;;4.13;;
64500;SDS011;50874;24.150;-110.320;2023-12-20T00:45:59;37.47;;;4.50;;
64500;SDS011;50874;24.150;-110.320;2023-12-20T00:48:25;27.75;;;4.38;;
64500;SDS011;50874;24.150;-110.320;2023-12-20T00:50:52;36.50;;;4.45;;
64500;SDS011;50874;24.150;-110.320;2023-12-20T00:53:19;37.25;;;5.78;;
64500;SDS011;50874;24.150;-110.320;2023-12-20T00:55:45;36.50;;;5.55;;
64500;SDS011;50874;24.150;-110.320;2023-12-20T00:58:12;44.58;;;5.30;;
64500;SDS011;50874;24.150;-110.320;2023-12-20T01:00:40;58.35;;;6.28;;
64500;SDS011;50874;24.150;-110.320;2023-12-20T01:03:08;57.05;;;6.15;;
64500;SDS011;50874;24.150;-110.320;2023-12-20T01:05:34;56.63;;;6.40;;
64500;SDS011;50874;24.150;-110.320;2023-12-20T01:08:01;49.15;;;6.10;;
64500;SDS011;50874;24.150;-110.320;2023-12-20T01:10:28;33.38;;;3.88;;
64500;SDS011;50874;24.150;-110.320;2023-12-20T01:12:55;28.60;;;4.05;;
64500;SDS011;50874;24.150;-110.320;2023-12-20T01:15:21;41.05;;;5.53;;
64500;SDS011;50874;24.150;-110.320;2023-12-20T01:17:48;26.75;;;5.00;;
64500;SDS011;50874;24.150;-110.320;2023-12-20T01:20:15;30.58;;;6.55;;
64500;SDS011;50874;24.150;-110.320;2023-12-20T01:22:42;33.65;;;6.30;;
64500;SDS011;50874;24.150;-110.320;2023-12-20T01:25:11;29.92;;;6.50;;
64500;SDS011;50874;24.150;-110.320;2023-12-20T01:27:37;41.83;;;6.30;;
64500;SDS011;50874;24.150;-110.320;2023-12-20T01:30:04;35.40;;;5.70;;
64500;SDS011;50874;24.150;-110.320;2023-12-20T01:32:31;25.92;;;4.55;;
64500;SDS011;50874;24.150;-110.320;2023-12-20T01:34:57;38.45;;;5.40;;
64500;SDS011;50874;24.150;-110.320;2023-12-20T01:37:24;23.30;;;4.32;;
64500;SDS011;50874;24.150;-110.320;2023-12-20T01:39:51;20.98;;;3.83;;
64500;SDS011;50874;24.150;-110.320;2023-12-20T01:42:18;37.88;;;4.50;;
64500;SDS011;50874;24.150;-110.320;2023-12-20T01:44:45;30.27;;;4.63;;
64500;SDS011;50874;24.150;-110.320;2023-12-20T01:47:11;34.15;;;4.07;;
64500;SDS011;50874;24.150;-110.320;2023-12-20T01:49:38;40.35;;;4.65;;
64500;SDS011;50874;24.150;-110.320;2023-12-20T01:52:05;35.75;;;3.75;;
64500;SDS011;50874;24.150;-110.320;2023-12-20T01:54:33;27.98;;;3.60;;
64500;SDS011;50874;24.150;-110.320;2023-12-20T01:57:01;19.83;;;3.88;;
64500;SDS011;50874;24.150;-110.320;2023-12-20T01:59:28;20.80;;;3.53;;
64500;SDS011;50874;24.150;-110.320;2023-12-20T02:01:56;13.13;;;2.92;;
64500;SDS011;50874;24.150;-110.320;2023-12-20T02:04:23;28.67;;;2.83;;
64500;SDS011;50874;24.150;-110.320;2023-12-20T02:06:52;33.53;;;3.70;;
64500;SDS011;50874;24.150;-110.320;2023-12-20T02:09:19;15.82;;;3.22;;
64500;SDS011;50874;24.150;-110.320;2023-12-20T02:11:46;19.88;;;2.83;;
64500;SDS011;50874;24.150;-110.320;2023-12-20T02:14:12;16.48;;;3.15;;
64500;SDS011;50874;24.150;-110.320;2023-12-20T02:16:39;28.25;;;3.50;;
64500;SDS011;50874;24.150;-110.320;2023-12-20T02:19:07;27.10;;;3.97;;
64500;SDS011;50874;24.150;-110.320;2023-12-20T02:21:41;32.95;;;4.25;;
64500;SDS011;50874;24.150;-110.320;2023-12-20T02:24:07;28.33;;;4.20;;
64500;SDS011;50874;24.150;-110.320;2023-12-20T02:26:34;28.52;;;5.05;;
64500;SDS011;50874;24.150;-110.320;2023-12-20T02:29:00;38.50;;;4.53;;
64500;SDS011;50874;24.150;-110.320;2023-12-20T02:31:27;30.40;;;4.25;;
64500;SDS011;50874;24.150;-110.320;2023-12-20T02:33:54;23.30;;;3.50;;
64500;SDS011;50874;24.150;-110.320;2023-12-20T02:36:21;46.78;;;4.97;;
64500;SDS011;50874;24.150;-110.320;2023-12-20T02:38:47;27.77;;;4.60;;
64500;SDS011;50874;24.150;-110.320;2023-12-20T02:41:15;28.52;;;3.88;;
64500;SDS011;50874;24.150;-110.320;2023-12-20T02:43:43;52.92;;;5.65;;
64500;SDS011;50874;24.150;-110.320;2023-12-20T02:46:11;40.55;;;5.47;;
64500;SDS011;50874;24.150;-110.320;2023-12-20T02:48:39;67.97;;;6.35;;
64500;SDS011;50874;24.150;-110.320;2023-12-20T02:51:05;43.35;;;4.78;;
64500;SDS011;50874;24.150;-110.320;2023-12-20T02:53:32;20.23;;;3.08;;
64500;SDS011;50874;24.150;-110.320;2023-12-20T02:55:58;25.05;;;2.80;;
64500;SDS011;50874;24.150;-110.320;2023-12-20T02:58:25;38.72;;;5.10;;
64500;SDS011;50874;24.150;-110.320;2023-12-20T03:00:51;39.50;;;5.60;;
64500;SDS011;50874;24.150;-110.320;2023-12-20T03:03:18;44.15;;;6.00;;
64500;SDS011;50874;24.150;-110.320;2023-12-20T03:05:45;55.40;;;6.95;;
64500;SDS011;50874;24.150;-110.320;2023-12-20T03:08:12;41.13;;;5.63;;
64500;SDS011;50874;24.150;-110.320;2023-12-20T03:10:38;36.83;;;5.30;;
64500;SDS011;50874;24.150;-110.320;2023-12-20T03:13:05;43.22;;;5.35;;
64500;SDS011;50874;24.150;-110.320;2023-12-20T03:15:31;32.72;;;3.95;;
64500;SDS011;50874;24.150;-110.320;2023-12-20T03:17:58;26.45;;;3.55;;
64500;SDS011;50874;24.150;-110.320;2023-12-20T03:20:24;21.75;;;4.35;;
64500;SDS011;50874;24.150;-110.320;2023-12-20T03:22:54;22.40;;;3.95;;
64500;SDS011;50874;24.150;-110.320;2023-12-20T03:25:20;25.52;;;3.90;;
64500;SDS011;50874;24.150;-110.320;2023-12-20T03:27:47;23.60;;;3.65;;
64500;SDS011;50874;24.150;-110.320;2023-12-20T03:30:13;12.25;;;3.00;;
64500;SDS011;50874;24.150;-110.320;2023-12-20T03:32:40;15.40;;;3.45;;
64500;SDS011;50874;24.150;-110.320;2023-12-20T03:35:06;23.17;;;3.25;;
64500;SDS011;50874;24.150;-110.320;2023-12-20T03:37:33;12.40;;;3.10;;
64500;SDS011;50874;24.150;-110.320;2023-12-20T03:39:59;33.83;;;4.38;;
64500;SDS011;50874;24.150;-110.320;2023-12-20T03:42:26;26.50;;;5.68;;
64500;SDS011;50874;24.150;-110.320;2023-12-20T03:44:53;26.83;;;6.15;;
64500;SDS011;50874;24.150;-110.320;2023-12-20T03:47:19;22.40;;;6.25;;
64500;SDS011;50874;24.150;-110.320;2023-12-20T03:49:46;22.20;;;6.47;;
64500;SDS011;50874;24.150;-110.320;2023-12-20T03:52:12;14.63;;;6.00;;
64500;SDS011;50874;24.150;-110.320;2023-12-20T03:54:39;17.00;;;5.07;;
64500;SDS011;50874;24.150;-110.320;2023-12-20T03:57:09;10.88;;;3.72;;
64500;SDS011;50874;24.150;-110.320;2023-12-20T03:59:36;10.30;;;3.63;;
64500;SDS011;50874;24.150;-110.320;2023-12-20T04:02:03;9.38;;;3.45;;
64500;SDS011;50874;24.150;-110.320;2023-12-20T04:04:30;12.52;;;3.50;;
64500;SDS011;50874;24.150;-110.320;2023-12-20T04:06:56;18.38;;;4.68;;
64500;SDS011;50874;24.150;-110.320;2023-12-20T04:09:23;15.35;;;3.58;;
64500;SDS011;50874;24.150;-110.320;2023-12-20T04:11:49;11.48;;;3.25;;
64500;SDS011;50874;24.150;-110.320;2023-12-20T04:14:16;30.52;;;4.82;;
64500;SDS011;50874;24.150;-110.320;2023-12-20T04:16:43;31.15;;;4.72;;
64500;SDS011;50874;24.150;-110.320;2023-12-20T04:19:09;32.53;;;4.55;;
64500;SDS011;50874;24.150;-110.320;2023-12-20T04:21:36;21.65;;;5.07;;
64500;SDS011;50874;24.150;-110.320;2023-12-20T04:24:02;42.78;;;6.05;;
64500;SDS011;50874;24.150;-110.320;2023-12-20T04:26:29;37.45;;;5.30;;
64500;SDS011;50874;24.150;-110.320;2023-12-20T04:28:55;39.53;;;5.47;;
64500;SDS011;50874;24.150;-110.320;2023-12-20T04:31:22;32.65;;;5.25;;
64500;SDS011;50874;24.150;-110.320;2023-12-20T04:33:49;29.38;;;4.30;;
64500;SDS011;50874;24.150;-110.320;2023-12-20T04:36:15;28.85;;;4.30;;
64500;SDS011;50874;24.150;-110.320;2023-12-20T04:38:42;16.88;;;2.22;;
64500;SDS011;50874;24.150;-110.320;2023-12-20T04:41:08;11.10;;;2.15;;
64500;SDS011;50874;24.150;-110.320;2023-12-20T04:43:35;6.57;;;1.85;;
64500;SDS011;50874;24.150;-110.320;2023-12-20T04:46:01;7.88;;;2.53;;
64500;SDS011;50874;24.150;-110.320;2023-12-20T04:48:28;6.45;;;2.15;;
64500;SDS011;50874;24.150;-110.320;2023-12-20T04:50:54;5.35;;;1.60;;
64500;SDS011;50874;24.150;-110.320;2023-12-20T04:53:21;11.25;;;1.95;;
64500;SDS011;50874;24.150;-110.320;2023-12-20T04:55:48;11.05;;;2.42;;
64500;SDS011;50874;24.150;-110.320;2023-12-20T04:58:14;22.23;;;2.95;;
64500;SDS011;50874;24.150;-110.320;2023-12-20T05:00:41;17.27;;;4.00;;
64500;SDS011;50874;24.150;-110.320;2023-12-20T05:03:08;47.08;;;4.90;;
64500;SDS011;50874;24.150;-110.320;2023-12-20T05:05:34;20.50;;;3.47;;
64500;SDS011;50874;24.150;-110.320;2023-12-20T05:08:01;20.00;;;3.08;;
64500;SDS011;50874;24.150;-110.320;2023-12-20T05:10:28;17.67;;;2.85;;
64500;SDS011;50874;24.150;-110.320;2023-12-20T05:12:54;25.30;;;3.85;;
64500;SDS011;50874;24.150;-110.320;2023-12-20T05:15:21;11.82;;;2.75;;
64500;SDS011;50874;24.150;-110.320;2023-12-20T05:17:47;5.88;;;1.77;;
64500;SDS011;50874;24.150;-110.320;2023-12-20T05:20:14;13.38;;;2.20;;
64500;SDS011;50874;24.150;-110.320;2023-12-20T05:22:41;13.93;;;2.33;;
64500;SDS011;50874;24.150;-110.320;2023-12-20T05:25:07;25.80;;;3.95;;
64500;SDS011;50874;24.150;-110.320;2023-12-20T05:27:34;11.45;;;2.75;;
64500;SDS011;50874;24.150;-110.320;2023-12-20T05:30:01;10.05;;;2.78;;
64500;SDS011;50874;24.150;-110.320;2023-12-20T05:32:27;8.73;;;1.98;;
64500;SDS011;50874;24.150;-110.320;2023-12-20T05:34:54;9.30;;;2.03;;
64500;SDS011;50874;24.150;-110.320;2023-12-20T05:37:20;16.25;;;2.50;;
64500;SDS011;50874;24.150;-110.320;2023-12-20T05:39:47;19.83;;;3.20;;
64500;SDS011;50874;24.150;-110.320;2023-12-20T05:42:13;10.85;;;2.17;;
64500;SDS011;50874;24.150;-110.320;2023-12-20T05:44:40;7.00;;;1.67;;
64500;SDS011;50874;24.150;-110.320;2023-12-20T05:47:06;11.60;;;2.67;;
64500;SDS011;50874;24.150;-110.320;2023-12-20T05:49:33;8.95;;;1.98;;
64500;SDS011;50874;24.150;-110.320;2023-12-20T05:51:59;8.32;;;2.40;;
64500;SDS011;50874;24.150;-110.320;2023-12-20T05:54:26;11.75;;;2.90;;
64500;SDS011;50874;24.150;-110.320;2023-12-20T05:56:52;12.05;;;2.42;;
64500;SDS011;50874;24.150;-110.320;2023-12-20T05:59:19;12.05;;;2.72;;
64500;SDS011;50874;24.150;-110.320;2023-12-20T06:01:45;9.50;;;2.50;;
64500;SDS011;50874;24.150;-110.320;2023-12-20T06:04:12;6.38;;;1.90;;
64500;SDS011;50874;24.150;-110.320;2023-12-20T06:06:41;9.38;;;1.92;;
64500;SDS011;50874;24.150;-110.320;2023-12-20T06:09:08;12.95;;;2.47;;
64500;SDS011;50874;24.150;-110.320;2023-12-20T06:11:34;7.43;;;2.30;;
64500;SDS011;50874;24.150;-110.320;2023-12-20T06:14:01;12.13;;;2.22;;
64500;SDS011;50874;24.150;-110.320;2023-12-20T06:16:27;10.18;;;2.08;;
64500;SDS011;50874;24.150;-110.320;2023-12-20T06:18:54;19.67;;;2.25;;
64500;SDS011;50874;24.150;-110.320;2023-12-20T06:21:20;5.55;;;1.30;;
64500;SDS011;50874;24.150;-110.320;2023-12-20T06:23:47;8.15;;;2.53;;
64500;SDS011;50874;24.150;-110.320;2023-12-20T06:26:13;6.30;;;2.28;;
64500;SDS011;50874;24.150;-110.320;2023-12-20T06:28:40;4.47;;;2.00;;
64500;SDS011;50874;24.150;-110.320;2023-12-20T06:31:06;15.77;;;2.63;;
64500;SDS011;50874;24.150;-110.320;2023-12-20T06:33:33;10.15;;;2.28;;
64500;SDS011;50874;24.150;-110.320;2023-12-20T06:35:59;8.55;;;2.08;;
64500;SDS011;50874;24.150;-110.320;2023-12-20T06:38:26;12.82;;;2.67;;
64500;SDS011;50874;24.150;-110.320;2023-12-20T06:40:53;17.65;;;2.53;;
64500;SDS011;50874;24.150;-110.320;2023-12-20T06:43:20;9.05;;;2.58;;
64500;SDS011;50874;24.150;-110.320;2023-12-20T06:45:46;10.50;;;2.17;;
64500;SDS011;50874;24.150;-110.320;2023-12-20T06:48:13;17.90;;;2.90;;
64500;SDS011;50874;24.150;-110.320;2023-12-20T06:50:39;10.27;;;2.92;;
64500;SDS011;50874;24.150;-110.320;2023-12-20T06:53:06;9.48;;;2.80;;
64500;SDS011;50874;24.150;-110.320;2023-12-20T06:55:34;14.35;;;3.08;;
64500;SDS011;50874;24.150;-110.320;2023-12-20T06:58:03;7.78;;;2.90;;
64500;SDS011;50874;24.150;-110.320;2023-12-20T07:00:30;9.75;;;2.72;;
64500;SDS011;50874;24.150;-110.320;2023-12-20T07:02:57;13.48;;;3.15;;
64500;SDS011;50874;24.150;-110.320;2023-12-20T07:05:24;11.13;;;2.88;;
64500;SDS011;50874;24.150;-110.320;2023-12-20T07:07:50;13.73;;;2.67;;
64500;SDS011;50874;24.150;-110.320;2023-12-20T07:10:17;15.15;;;3.25;;
64500;SDS011;50874;24.150;-110.320;2023-12-20T07:12:43;22.13;;;3.25;;
64500;SDS011;50874;24.150;-110.320;2023-12-20T07:15:10;15.90;;;3.75;;
64500;SDS011;50874;24.150;-110.320;2023-12-20T07:17:37;20.45;;;3.40;;
64500;SDS011;50874;24.150;-110.320;2023-12-20T07:20:04;15.65;;;3.28;;
64500;SDS011;50874;24.150;-110.320;2023-12-20T07:22:34;8.68;;;2.72;;
64500;SDS011;50874;24.150;-110.320;2023-12-20T07:25:01;16.08;;;2.80;;
64500;SDS011;50874;24.150;-110.320;2023-12-20T07:27:29;10.65;;;2.97;;
64500;SDS011;50874;24.150;-110.320;2023-12-20T07:29:55;13.32;;;2.35;;
64500;SDS011;50874;24.150;-110.320;2023-12-20T07:32:22;18.98;;;3.28;;
64500;SDS011;50874;24.150;-110.320;2023-12-20T07:34:48;12.43;;;2.60;;
64500;SDS011;50874;24.150;-110.320;2023-12-20T07:37:15;9.68;;;1.98;;
64500;SDS011;50874;24.150;-110.320;2023-12-20T07:39:41;19.30;;;2.33;;
64500;SDS011;50874;24.150;-110.320;2023-12-20T07:42:08;6.55;;;1.95;;
64500;SDS011;50874;24.150;-110.320;2023-12-20T07:44:35;12.63;;;2.22;;
64500;SDS011;50874;24.150;-110.320;2023-12-20T07:47:02;7.93;;;1.70;;
64500;SDS011;50874;24.150;-110.320;2023-12-20T07:49:28;6.13;;;1.35;;
64500;SDS011;50874;24.150;-110.320;2023-12-20T07:51:55;7.43;;;1.40;;
64500;SDS011;50874;24.150;-110.320;2023-12-20T07:54:22;9.23;;;1.92;;
64500;SDS011;50874;24.150;-110.320;2023-12-20T07:56:49;6.13;;;1.83;;
64500;SDS011;50874;24.150;-110.320;2023-12-20T07:59:15;5.30;;;1.65;;
64500;SDS011;50874;24.150;-110.320;2023-12-20T08:01:42;20.30;;;2.08;;
64500;SDS011;50874;24.150;-110.320;2023-12-20T08:04:08;7.13;;;1.55;;
64500;SDS011;50874;24.150;-110.320;2023-12-20T08:06:35;4.47;;;1.65;;
64500;SDS011;50874;24.150;-110.320;2023-12-20T08:09:02;4.65;;;1.35;;
64500;SDS011;50874;24.150;-110.320;2023-12-20T08:11:29;5.93;;;1.83;;
64500;SDS011;50874;24.150;-110.320;2023-12-20T08:13:56;8.77;;;1.70;;
64500;SDS011;50874;24.150;-110.320;2023-12-20T08:16:22;9.02;;;1.70;;
64500;SDS011;50874;24.150;-110.320;2023-12-20T08:18:50;8.27;;;1.58;;
64500;SDS011;50874;24.150;-110.320;2023-12-20T08:21:17;4.03;;;1.48;;
64500;SDS011;50874;24.150;-110.320;2023-12-20T08:23:45;7.15;;;1.75;;
64500;SDS011;50874;24.150;-110.320;2023-12-20T08:26:13;7.63;;;1.70;;
64500;SDS011;50874;24.150;-110.320;2023-12-20T08:28:39;3.38;;;1.25;;
64500;SDS011;50874;24.150;-110.320;2023-12-20T08:31:06;10.73;;;1.70;;
64500;SDS011;50874;24.150;-110.320;2023-12-20T08:33:38;4.72;;;1.25;;
64500;SDS011;50874;24.150;-110.320;2023-12-20T08:36:05;10.15;;;1.33;;
64500;SDS011;50874;24.150;-110.320;2023-12-20T08:38:32;2.88;;;0.95;;
64500;SDS011;50874;24.150;-110.320;2023-12-20T08:40:58;3.00;;;1.30;;
64500;SDS011;50874;24.150;-110.320;2023-12-20T08:43:25;11.27;;;1.90;;
64500;SDS011;50874;24.150;-110.320;2023-12-20T08:45:51;13.75;;;2.28;;
64500;SDS011;50874;24.150;-110.320;2023-12-20T08:48:18;5.78;;;1.48;;
64500;SDS011;50874;24.150;-110.320;2023-12-20T08:50:44;7.95;;;1.75;;
64500;SDS011;50874;24.150;-110.320;2023-12-20T08:53:12;6.05;;;1.38;;
64500;SDS011;50874;24.150;-110.320;2023-12-20T08:55:39;4.07;;;1.58;;
64500;SDS011;50874;24.150;-110.320;2023-12-20T08:58:05;3.40;;;1.17;;
64500;SDS011;50874;24.150;-110.320;2023-12-20T09:00:33;5.85;;;1.58;;
64500;SDS011;50874;24.150;-110.320;2023-12-20T09:03:02;7.82;;;1.30;;
64500;SDS011;50874;24.150;-110.320;2023-12-20T09:05:29;4.03;;;1.30;;
64500;SDS011;50874;24.150;-110.320;2023-12-20T09:07:56;5.63;;;1.63;;
64500;SDS011;50874;24.150;-110.320;2023-12-20T09:10:22;6.90;;;1.38;;
64500;SDS011;50874;24.150;-110.320;2023-12-20T09:12:49;5.95;;;1.52;;
64500;SDS011;50874;24.150;-110.320;2023-12-20T09:15:24;7.70;;;1.58;;
64500;SDS011;50874;24.150;-110.320;2023-12-20T09:17:51;4.90;;;1.73;;
64500;SDS011;50874;24.150;-110.320;2023-12-20T09:20:19;6.55;;;1.73;;
64500;SDS011;50874;24.150;-110.320;2023-12-20T09:22:45;14.00;;;2.10;;
64500;SDS011;50874;24.150;-110.320;2023-12-20T09:25:12;4.90;;;1.60;;
64500;SDS011;50874;24.150;-110.320;2023-12-20T09:27:41;3.72;;;1.73;;
64500;SDS011;50874;24.150;-110.320;2023-12-20T09:30:07;6.60;;;1.92;;
64500;SDS011;50874;24.150;-110.320;2023-12-20T09:32:34;3.42;;;1.40;;
64500;SDS011;50874;24.150;-110.320;2023-12-20T09:35:01;3.92;;;1.38;;
64500;SDS011;50874;24.150;-110.320;2023-12-20T09:37:28;5.32;;;1.73;;
64500;SDS011;50874;24.150;-110.320;2023-12-20T09:39:55;9.13;;;1.40;;
64500;SDS011;50874;24.150;-110.320;2023-12-20T09:42:38;5.68;;;1.58;;
64500;SDS011;50874;24.150;-110.320;2023-12-20T09:45:12;8.98;;;1.70;;
64500;SDS011;50874;24.150;-110.320;2023-12-20T09:47:44;5.18;;;1.40;;
64500;SDS011;50874;24.150;-110.320;2023-12-20T09:50:11;7.22;;;1.50;;
64500;SDS011;50874;24.150;-110.320;2023-12-20T09:52:38;5.07;;;1.20;;
64500;SDS011;50874;24.150;-110.320;2023-12-20T09:55:05;6.57;;;1.30;;
64500;SDS011;50874;24.150;-110.320;2023-12-20T09:57:33;4.50;;;1.38;;
64500;SDS011;50874;24.150;-110.320;2023-12-20T10:00:00;6.00;;;1.67;;
64500;SDS011;50874;24.150;-110.320;2023-12-20T10:02:26;9.35;;;2.33;;
64500;SDS011;50874;24.150;-110.320;2023-12-20T10:04:55;6.05;;;1.40;;
64500;SDS011;50874;24.150;-110.320;2023-12-20T10:07:21;6.40;;;1.40;;
64500;SDS011;50874;24.150;-110.320;2023-12-20T10:09:48;5.78;;;1.50;;
64500;SDS011;50874;24.150;-110.320;2023-12-20T10:12:15;6.32;;;1.67;;
64500;SDS011;50874;24.150;-110.320;2023-12-20T10:14:42;3.78;;;1.30;;
64500;SDS011;50874;24.150;-110.320;2023-12-20T10:17:09;8.70;;;1.77;;
64500;SDS011;50874;24.150;-110.320;2023-12-20T10:19:37;4.30;;;1.45;;
64500;SDS011;50874;24.150;-110.320;2023-12-20T10:22:04;6.97;;;1.45;;
64500;SDS011;50874;24.150;-110.320;2023-12-20T10:24:30;5.25;;;1.38;;
64500;SDS011;50874;24.150;-110.320;2023-12-20T10:27:03;9.57;;;1.83;;
64500;SDS011;50874;24.150;-110.320;2023-12-20T10:31:58;6.30;;;1.80;;
64500;SDS011;50874;24.150;-110.320;2023-12-20T10:34:25;10.48;;;2.42;;
64500;SDS011;50874;24.150;-110.320;2023-12-20T10:36:52;7.82;;;1.40;;
64500;SDS011;50874;24.150;-110.320;2023-12-20T10:39:18;9.52;;;1.65;;
64500;SDS011;50874;24.150;-110.320;2023-12-20T10:41:45;12.00;;;1.60;;
64500;SDS011;50874;24.150;-110.320;2023-12-20T10:44:13;6.38;;;1.48;;
64500;SDS011;50874;24.150;-110.320;2023-12-20T10:46:41;6.55;;;1.70;;
64500;SDS011;50874;24.150;-110.320;2023-12-20T10:49:15;6.28;;;1.85;;
64500;SDS011;50874;24.150;-110.320;2023-12-20T10:51:43;14.27;;;2.63;;
64500;SDS011;50874;24.150;-110.320;2023-12-20T10:54:12;8.27;;;1.70;;
64500;SDS011;50874;24.150;-110.320;2023-12-20T10:56:38;4.95;;;1.42;;
64500;SDS011;50874;24.150;-110.320;2023-12-20T10:59:05;10.65;;;2.10;;
64500;SDS011;50874;24.150;-110.320;2023-12-20T11:01:35;5.85;;;1.60;;
64500;SDS011;50874;24.150;-110.320;2023-12-20T11:04:03;7.88;;;1.80;;
64500;SDS011;50874;24.150;-110.320;2023-12-20T11:09:24;8.65;;;1.80;;
64500;SDS011;50874;24.150;-110.320;2023-12-20T11:14:45;10.95;;;1.50;;
64500;SDS011;50874;24.150;-110.320;2023-12-20T11:17:16;4.07;;;1.35;;
64500;SDS011;50874;24.150;-110.320;2023-12-20T11:20:03;6.78;;;1.77;;
64500;SDS011;50874;24.150;-110.320;2023-12-20T11:22:31;10.00;;;2.38;;
64500;SDS011;50874;24.150;-110.320;2023-12-20T11:25:08;13.80;;;2.75;;
64500;SDS011;50874;24.150;-110.320;2023-12-20T11:27:37;5.45;;;1.35;;
64500;SDS011;50874;24.150;-110.320;2023-12-20T11:30:08;7.63;;;1.70;;
64500;SDS011;50874;24.150;-110.320;2023-12-20T11:32:35;8.88;;;1.90;;
64500;SDS011;50874;24.150;-110.320;2023-12-20T11:37:36;9.65;;;1.60;;
64500;SDS011;50874;24.150;-110.320;2023-12-20T11:42:50;5.80;;;1.50;;
64500;SDS011;50874;24.150;-110.320;2023-12-20T11:45:21;7.22;;;1.50;;
64500;SDS011;50874;24.150;-110.320;2023-12-20T11:47:51;9.57;;;1.92;;
64500;SDS011;50874;24.150;-110.320;2023-12-20T11:50:20;7.97;;;2.17;;
64500;SDS011;50874;24.150;-110.320;2023-12-20T11:52:48;5.68;;;1.40;;
64500;SDS011;50874;24.150;-110.320;2023-12-20T11:55:15;9.60;;;2.55;;
64500;SDS011;50874;24.150;-110.320;2023-12-20T11:57:42;10.55;;;2.22;;
64500;SDS011;50874;24.150;-110.320;2023-12-20T12:00:10;5.18;;;1.38;;
64500;SDS011;50874;24.150;-110.320;2023-12-20T12:02:37;6.57;;;1.75;;
64500;SDS011;50874;24.150;-110.320;2023-12-20T12:05:03;8.45;;;1.63;;
64500;SDS011;50874;24.150;-110.320;2023-12-20T12:07:31;7.63;;;1.65;;
64500;SDS011;50874;24.150;-110.320;2023-12-20T12:09:57;5.32;;;1.42;;
64500;SDS011;50874;24.150;-110.320;2023-12-20T12:12:24;6.47;;;2.03;;
64500;SDS011;50874;24.150;-110.320;2023-12-20T12:14:52;4.53;;;1.58;;
64500;SDS011;50874;24.150;-110.320;2023-12-20T12:17:22;10.40;;;1.70;;
64500;SDS011;50874;24.150;-110.320;2023-12-20T12:19:48;6.63;;;1.67;;
64500;SDS011;50874;24.150;-110.320;2023-12-20T12:22:15;8.10;;;1.70;;
64500;SDS011;50874;24.150;-110.320;2023-12-20T12:24:45;8.50;;;1.25;;
64500;SDS011;50874;24.150;-110.320;2023-12-20T12:27:13;7.38;;;1.48;;
64500;SDS011;50874;24.150;-110.320;2023-12-20T12:29:39;7.35;;;1.58;;
64500;SDS011;50874;24.150;-110.320;2023-12-20T12:32:06;7.90;;;1.88;;
64500;SDS011;50874;24.150;-110.320;2023-12-20T12:34:34;8.32;;;1.42;;
64500;SDS011;50874;24.150;-110.320;2023-12-20T12:37:02;5.70;;;1.83;;
64500;SDS011;50874;24.150;-110.320;2023-12-20T12:39:30;15.65;;;1.98;;
64500;SDS011;50874;24.150;-110.320;2023-12-20T12:41:56;8.77;;;1.60;;
64500;SDS011;50874;24.150;-110.320;2023-12-20T12:44:23;11.88;;;2.28;;
64500;SDS011;50874;24.150;-110.320;2023-12-20T12:46:50;10.15;;;2.13;;
64500;SDS011;50874;24.150;-110.320;2023-12-20T12:49:19;11.07;;;2.38;;
64500;SDS011;50874;24.150;-110.320;2023-12-20T12:51:48;13.10;;;2.08;;
64500;SDS011;50874;24.150;-110.320;2023-12-20T12:54:15;17.13;;;2.88;;
64500;SDS011;50874;24.150;-110.320;2023-12-20T12:56:43;11.93;;;1.77;;
64500;SDS011;50874;24.150;-110.320;2023-12-20T12:59:12;18.58;;;3.08;;
64500;SDS011;50874;24.150;-110.320;2023-12-20T13:01:38;13.15;;;2.00;;
64500;SDS011;50874;24.150;-110.320;2023-12-20T13:04:05;6.95;;;2.00;;
64500;SDS011;50874;24.150;-110.320;2023-12-20T13:06:35;4.70;;;1.92;;
64500;SDS011;50874;24.150;-110.320;2023-12-20T13:09:03;9.90;;;2.40;;
64500;SDS011;50874;24.150;-110.320;2023-12-20T13:11:30;13.93;;;1.90;;
64500;SDS011;50874;24.150;-110.320;2023-12-20T13:13:57;9.20;;;1.70;;
64500;SDS011;50874;24.150;-110.320;2023-12-20T13:16:23;12.98;;;1.95;;
64500;SDS011;50874;24.150;-110.320;2023-12-20T13:18:50;16.50;;;1.83;;
64500;SDS011;50874;24.150;-110.320;2023-12-20T13:21:16;4.43;;;1.42;;
64500;SDS011;50874;24.150;-110.320;2023-12-20T13:23:43;6.90;;;1.33;;
64500;SDS011;50874;24.150;-110.320;2023-12-20T13:26:09;11.82;;;1.92;;
64500;SDS011;50874;24.150;-110.320;2023-12-20T13:28:36;8.88;;;1.85;;
64500;SDS011;50874;24.150;-110.320;2023-12-20T13:31:03;9.77;;;1.83;;
64500;SDS011;50874;24.150;-110.320;2023-12-20T13:33:29;7.68;;;2.10;;
64500;SDS011;50874;24.150;-110.320;2023-12-20T13:35:56;9.05;;;2.00;;
64500;SDS011;50874;24.150;-110.320;2023-12-20T13:38:23;6.68;;;1.63;;
64500;SDS011;50874;24.150;-110.320;2023-12-20T13:40:50;5.78;;;1.30;;
64500;SDS011;50874;24.150;-110.320;2023-12-20T13:43:16;10.38;;;2.03;;
64500;SDS011;50874;24.150;-110.320;2023-12-20T13:45:46;15.43;;;1.77;;
64500;SDS011;50874;24.150;-110.320;2023-12-20T13:48:13;8.35;;;1.90;;
64500;SDS011;50874;24.150;-110.320;2023-12-20T13:50:40;9.80;;;1.58;;
64500;SDS011;50874;24.150;-110.320;2023-12-20T13:53:06;7.05;;;2.25;;
64500;SDS011;50874;24.150;-110.320;2023-12-20T13:55:35;10.82;;;1.52;;
64500;SDS011;50874;24.150;-110.320;2023-12-20T13:58:02;8.55;;;1.40;;
64500;SDS011;50874;24.150;-110.320;2023-12-20T14:00:29;6.63;;;1.70;;
64500;SDS011;50874;24.150;-110.320;2023-12-20T14:02:55;4.07;;;1.30;;
64500;SDS011;50874;24.150;-110.320;2023-12-20T14:05:22;7.50;;;1.75;;
64500;SDS011;50874;24.150;-110.320;2023-12-20T14:07:49;12.50;;;1.92;;
64500;SDS011;50874;24.150;-110.320;2023-12-20T14:10:16;9.02;;;1.73;;
64500;SDS011;50874;24.150;-110.320;2023-12-20T14:12:42;14.65;;;2.00;;
64500;SDS011;50874;24.150;-110.320;2023-12-20T14:15:11;4.75;;;1.50;;